createdAt,value
2018-12-04T00:02:26.642Z,93759.58
2018-12-04T00:04:54.685Z,93761.88
2018-12-04T00:07:22.809Z,93764.41
2018-12-04T00:09:51.869Z,93772.09
2018-12-04T00:12:31.081Z,93770.88
2018-12-04T00:14:59.169Z,93772.13
2018-12-04T00:17:27.232Z,93772.41
2018-12-04T00:19:55.324Z,93778.75
2018-12-04T00:22:23.402Z,93774.17
2018-12-04T00:24:51.524Z,93773.27
2018-12-04T00:27:19.577Z,93781.97
2018-12-04T00:29:47.769Z,93789.25
2018-12-04T00:32:15.986Z,93784.70
2018-12-04T00:34:44.089Z,93792.92
2018-12-04T00:37:13.302Z,93792.95
2018-12-04T00:39:41.487Z,93813.24
2018-12-04T00:42:09.707Z,93815.86
2018-12-04T00:44:37.790Z,93834.27
2018-12-04T00:47:06.006Z,93852.33
2018-12-04T00:49:34.124Z,93851.88
2018-12-04T00:52:02.194Z,93873.00
2018-12-04T00:54:30.287Z,93867.12
2018-12-04T00:56:58.601Z,93882.22
2018-12-04T00:59:26.697Z,93886.34
2018-12-04T01:01:54.770Z,93902.47
2018-12-04T01:04:23.009Z,93898.41
2018-12-04T01:06:51.190Z,93916.06
2018-12-04T01:09:19.264Z,93925.31
2018-12-04T01:11:47.466Z,93935.74
2018-12-04T01:14:15.697Z,93944.00
2018-12-04T01:16:43.835Z,93946.47
2018-12-04T01:19:12.973Z,93962.70
2018-12-04T01:21:41.043Z,93981.32
2018-12-04T01:24:09.218Z,93985.14
2018-12-04T01:26:37.331Z,93993.81
2018-12-04T01:29:05.552Z,93994.89
2018-12-04T01:31:33.683Z,94005.89
2018-12-04T01:34:01.775Z,94026.14
2018-12-04T01:36:29.871Z,94029.50
2018-12-04T01:38:57.933Z,94041.34
2018-12-04T01:41:26.052Z,94051.54
2018-12-04T01:43:54.215Z,94072.34
2018-12-04T01:46:22.262Z,94087.84
2018-12-04T01:48:50.332Z,94097.41
2018-12-04T01:51:18.369Z,94113.41
2018-12-04T01:53:46.435Z,94122.17
2018-12-04T01:56:14.567Z,94127.10
2018-12-04T01:58:42.678Z,94123.08
2018-12-04T02:01:10.928Z,94125.30
2018-12-04T02:03:39.062Z,94137.70
2018-12-04T02:06:07.324Z,94142.31
2018-12-04T02:08:35.434Z,94147.52
2018-12-04T02:11:03.574Z,94155.30
2018-12-04T02:13:31.759Z,94167.66
2018-12-04T02:15:59.883Z,94173.17
2018-12-04T02:18:28.069Z,94179.52
2018-12-04T02:20:56.219Z,94184.54
2018-12-04T02:23:24.334Z,94184.47
2018-12-04T02:25:52.484Z,94189.30
2018-12-04T02:28:22.504Z,94182.91
2018-12-04T02:30:50.576Z,94189.41
2018-12-04T02:33:18.731Z,94196.45
2018-12-04T02:35:46.893Z,94204.49
2018-12-04T02:38:14.944Z,94201.35
2018-12-04T02:40:43.023Z,94203.22
2018-12-04T02:43:11.076Z,94206.40
2018-12-04T02:45:45.663Z,94213.19
2018-12-04T02:48:13.714Z,94221.61
2018-12-04T02:50:41.838Z,94228.53
2018-12-04T02:53:09.887Z,94227.41
2018-12-04T02:55:38.025Z,94240.98
2018-12-04T02:58:06.200Z,94244.03
2018-12-04T03:00:34.289Z,94244.45
2018-12-04T03:03:02.617Z,94250.42
2018-12-04T03:05:30.675Z,94252.95
2018-12-04T03:07:58.982Z,94266.55
2018-12-04T03:10:27.114Z,94274.79
2018-12-04T03:12:55.295Z,94275.18
2018-12-04T03:15:23.414Z,94275.01
2018-12-04T03:17:51.530Z,94284.36
2018-12-04T03:20:19.713Z,94285.67
2018-12-04T03:22:47.774Z,94285.58
2018-12-04T03:25:15.851Z,94304.94
2018-12-04T03:27:43.975Z,94311.30
2018-12-04T03:30:12.119Z,94308.05
2018-12-04T03:32:40.174Z,94310.55
2018-12-04T03:35:08.581Z,94312.59
2018-12-04T03:37:36.822Z,94322.37
2018-12-04T03:40:06.738Z,94334.06
2018-12-04T03:42:34.788Z,94328.42
2018-12-04T03:45:02.922Z,94343.73
2018-12-04T03:47:30.981Z,94356.40
2018-12-04T03:49:59.124Z,94347.43
2018-12-04T03:52:27.274Z,94355.12
2018-12-04T03:54:55.399Z,94357.47
2018-12-04T03:57:23.506Z,94368.31
2018-12-04T03:59:51.571Z,94364.17
2018-12-04T04:02:19.760Z,94371.66
2018-12-04T04:04:47.850Z,94372.67
2018-12-04T04:07:15.889Z,94374.70
2018-12-04T04:09:44.014Z,94373.92
2018-12-04T04:12:12.086Z,94389.39
2018-12-04T04:14:40.225Z,94386.59
2018-12-04T04:17:08.350Z,94384.83
2018-12-04T04:19:36.514Z,94388.12
2018-12-04T04:22:04.657Z,94403.75
2018-12-04T04:24:32.840Z,94402.97
2018-12-04T04:27:00.950Z,94409.34
2018-12-04T04:29:28.990Z,94423.11
2018-12-04T04:31:57.049Z,94435.27
2018-12-04T04:34:25.086Z,94441.41
2018-12-04T04:36:53.288Z,94436.27
2018-12-04T04:39:21.331Z,94446.50
2018-12-04T04:41:49.503Z,94441.80
2018-12-04T04:44:17.601Z,94455.58
2018-12-04T04:46:45.804Z,94459.52
2018-12-04T04:49:13.836Z,94465.89
2018-12-04T04:51:41.906Z,94454.58
2018-12-04T04:54:09.945Z,94458.02
2018-12-04T04:56:38.046Z,94456.61
2018-12-04T04:59:06.091Z,94469.72
2018-12-04T05:01:34.326Z,94472.39
2018-12-04T05:04:02.443Z,94464.79
2018-12-04T05:06:30.674Z,94467.11
2018-12-04T05:08:58.816Z,94476.92
2018-12-04T05:11:27.003Z,94481.88
2018-12-04T05:13:55.129Z,94484.86
2018-12-04T05:16:23.174Z,94490.80
2018-12-04T05:18:51.296Z,94507.45
2018-12-04T05:21:19.371Z,94514.72
2018-12-04T05:23:47.430Z,94514.42
2018-12-04T05:26:15.507Z,94521.48
2018-12-04T05:28:43.632Z,94530.92
2018-12-04T05:31:11.754Z,94537.80
2018-12-04T05:33:39.798Z,94540.70
2018-12-04T05:36:07.879Z,94538.02
2018-12-04T05:38:36.005Z,94543.97
2018-12-04T05:41:04.124Z,94552.70
2018-12-04T05:43:32.494Z,94562.77
2018-12-04T05:46:00.533Z,94560.09
2018-12-04T05:48:28.570Z,94574.03
2018-12-04T05:50:56.685Z,94577.08
2018-12-04T05:53:30.958Z,94580.07
2018-12-04T05:55:59.026Z,94572.34
2018-12-04T05:58:27.207Z,94579.45
2018-12-04T06:00:55.373Z,94578.23
2018-12-04T06:03:23.502Z,94586.52
2018-12-04T06:05:51.703Z,94598.81
2018-12-04T06:08:19.809Z,94609.67
2018-12-04T06:10:48.794Z,94607.17
2018-12-04T06:13:16.901Z,94613.89
2018-12-04T06:15:45.022Z,94609.62
2018-12-04T06:18:13.069Z,94622.14
2018-12-04T06:20:41.244Z,94628.95
2018-12-04T06:23:09.322Z,94633.27
2018-12-04T06:25:37.371Z,94637.69
2018-12-04T06:28:05.426Z,94638.79
2018-12-04T06:30:33.486Z,94646.62
2018-12-04T06:33:01.594Z,94649.11
2018-12-04T06:35:29.728Z,94647.19
2018-12-04T06:37:57.803Z,94657.20
2018-12-04T06:40:25.983Z,94664.91
2018-12-04T06:42:54.170Z,94672.77
2018-12-04T06:45:22.253Z,94679.08
2018-12-04T06:47:50.413Z,94687.80
2018-12-04T06:50:18.527Z,94687.67
2018-12-04T06:52:46.618Z,94693.16
2018-12-04T06:55:14.681Z,94692.97
2018-12-04T06:57:42.742Z,94706.90
2018-12-04T07:00:11.879Z,94710.41
2018-12-04T07:02:39.928Z,94716.34
2018-12-04T07:05:08.057Z,94739.97
2018-12-04T07:07:36.144Z,94734.42
2018-12-04T07:10:04.810Z,94742.52
2018-12-04T07:12:32.881Z,94755.85
2018-12-04T07:15:01.022Z,94756.55
2018-12-04T07:17:29.167Z,94766.05
2018-12-04T07:19:57.301Z,94776.43
2018-12-04T07:22:25.435Z,94771.09
2018-12-04T07:24:53.586Z,94778.33
2018-12-04T07:27:21.657Z,94791.02
2018-12-04T07:32:31.773Z,94798.62
2018-12-04T07:35:00.282Z,94807.44
2018-12-04T07:37:28.406Z,94807.66
2018-12-04T07:39:56.461Z,94816.52
2018-12-04T07:42:24.501Z,94826.56
2018-12-04T07:44:52.548Z,94825.44
2018-12-04T07:47:20.659Z,94825.58
2018-12-04T07:49:48.766Z,94827.59
2018-12-04T07:52:16.952Z,94835.14
2018-12-04T07:54:45.094Z,94835.73
2018-12-04T07:57:13.145Z,94837.61
2018-12-04T07:59:41.212Z,94856.66
2018-12-04T08:02:09.255Z,94855.87
2018-12-04T08:04:37.338Z,94855.78
2018-12-04T08:07:05.445Z,94869.98
2018-12-04T08:09:33.725Z,94869.73
2018-12-04T08:12:01.799Z,94878.11
2018-12-04T08:14:29.871Z,94885.95
2018-12-04T08:16:58.006Z,94892.09
2018-12-04T08:19:26.173Z,94898.93
2018-12-04T08:21:54.225Z,94904.19
2018-12-04T08:24:22.336Z,94908.14
2018-12-04T08:26:50.721Z,94913.49
2018-12-04T08:29:18.859Z,94919.93
2018-12-04T08:31:46.931Z,94921.53
2018-12-04T08:34:14.990Z,94932.94
2018-12-04T08:36:43.280Z,94936.69
2018-12-04T08:39:13.223Z,94937.30
2018-12-04T08:41:41.375Z,94940.41
2018-12-04T08:44:09.517Z,94941.86
2018-12-04T08:46:37.574Z,94956.42
2018-12-04T08:49:05.733Z,94959.12
2018-12-04T08:51:33.797Z,94956.75
2018-12-04T08:54:01.944Z,94959.78
2018-12-04T08:56:30.086Z,94967.04
2018-12-04T08:58:58.322Z,94973.00
2018-12-04T09:01:26.421Z,94972.67
2018-12-04T09:03:59.198Z,94979.34
2018-12-04T09:06:24.703Z,94977.47
2018-12-04T09:08:52.938Z,94984.22
2018-12-04T09:11:21.135Z,94997.05
2018-12-04T09:13:49.373Z,95001.03
2018-12-04T09:16:23.289Z,95008.07
2018-12-04T09:18:47.604Z,95001.56
2018-12-04T09:21:15.748Z,95021.83
2018-12-04T09:23:43.935Z,95025.27
2018-12-04T09:26:12.104Z,95034.23
2018-12-04T09:28:40.242Z,95039.73
2018-12-04T09:31:08.440Z,95048.72
2018-12-04T09:33:36.519Z,95057.27
2018-12-04T09:36:04.739Z,95056.13
2018-12-04T09:38:32.796Z,95068.20
2018-12-04T09:41:00.843Z,95062.94
2018-12-04T09:43:28.995Z,95073.89
2018-12-04T09:45:57.037Z,95080.86
2018-12-04T09:48:25.087Z,95071.42
2018-12-04T09:53:34.715Z,95078.48
2018-12-04T09:56:02.811Z,95091.78
2018-12-04T09:58:30.898Z,95091.08
2018-12-04T10:00:59.035Z,95088.34
2018-12-04T10:03:27.163Z,95098.90
2018-12-04T10:05:55.336Z,95104.59
2018-12-04T10:08:24.597Z,95108.58
2018-12-04T10:10:52.935Z,95111.41
2018-12-04T10:13:20.986Z,95116.46
2018-12-04T10:15:49.047Z,95114.83
2018-12-04T10:18:17.163Z,95128.26
2018-12-04T10:20:45.474Z,95125.21
2018-12-04T10:23:13.583Z,95117.69
2018-12-04T10:25:46.910Z,95118.20
2018-12-04T10:28:14.951Z,95125.44
2018-12-04T10:30:44.950Z,95131.45
2018-12-04T10:33:13.086Z,95127.62
2018-12-04T10:35:41.136Z,95139.79
2018-12-04T10:38:09.368Z,95141.72
2018-12-04T10:40:37.482Z,95148.29
2018-12-04T10:43:05.523Z,95148.26
2018-12-04T10:45:33.736Z,95153.70
2018-12-04T10:48:01.778Z,95150.71
2018-12-04T10:50:29.823Z,95148.91
2018-12-04T10:52:57.878Z,95152.08
2018-12-04T10:55:25.994Z,95155.27
2018-12-04T10:57:54.106Z,95162.55
2018-12-04T11:00:27.615Z,95163.84
2018-12-04T11:02:59.862Z,95166.81
2018-12-04T11:05:27.901Z,95179.08
2018-12-04T11:07:55.966Z,95178.09
2018-12-04T11:10:24.078Z,95180.04
2018-12-04T11:12:52.324Z,95175.84
2018-12-04T11:15:20.462Z,95182.22
2018-12-04T11:17:48.537Z,95183.19
2018-12-04T11:20:16.751Z,95190.25
2018-12-04T11:22:44.878Z,95199.44
2018-12-04T11:25:13.006Z,95195.16
2018-12-04T11:27:41.111Z,95197.12
2018-12-04T11:30:09.524Z,95202.85
2018-12-04T11:32:37.649Z,95201.83
2018-12-04T11:35:06.080Z,95203.08
2018-12-04T11:37:34.144Z,95203.82
2018-12-04T11:40:02.265Z,95199.77
2018-12-04T11:42:30.318Z,95203.56
2018-12-04T11:44:58.443Z,95204.45
2018-12-04T11:47:26.565Z,95214.86
2018-12-04T11:49:54.613Z,95214.83
2018-12-04T11:52:22.754Z,95211.02
2018-12-04T11:54:51.313Z,95221.40
2018-12-04T11:57:19.814Z,95228.61
2018-12-04T11:59:48.111Z,95240.84
2018-12-04T12:02:16.286Z,95238.43
2018-12-04T12:04:44.595Z,95254.80
2018-12-04T12:07:12.735Z,95253.16
2018-12-04T12:09:40.778Z,95262.80
2018-12-04T12:12:09.436Z,95260.39
2018-12-04T12:14:37.484Z,95260.08
2018-12-04T12:17:05.610Z,95269.39
2018-12-04T12:19:33.655Z,95270.11
2018-12-04T12:22:01.860Z,95270.42
2018-12-04T12:24:30.593Z,95262.66
2018-12-04T12:26:59.412Z,95271.50
2018-12-04T12:29:28.023Z,95271.23
2018-12-04T12:31:56.394Z,95277.45
2018-12-04T12:34:25.059Z,95270.00
2018-12-04T12:36:53.127Z,95279.79
2018-12-04T12:39:21.182Z,95287.83
2018-12-04T12:41:49.249Z,95291.75
2018-12-04T12:44:17.304Z,95291.86
2018-12-04T12:46:45.371Z,95294.29
2018-12-04T12:49:13.539Z,95297.91
2018-12-04T12:51:41.591Z,95299.16
2018-12-04T12:54:09.651Z,95309.00
2018-12-04T12:56:37.785Z,95315.05
2018-12-04T12:59:05.893Z,95314.83
2018-12-04T13:01:33.975Z,95318.52
2018-12-04T13:04:02.119Z,95321.52
2018-12-04T13:06:30.245Z,95323.75
2018-12-04T13:08:58.451Z,95321.61
2018-12-04T13:11:27.006Z,95321.00
2018-12-04T13:13:55.061Z,95329.33
2018-12-04T13:16:23.118Z,95333.17
2018-12-04T13:18:51.425Z,95337.95
2018-12-04T13:21:19.569Z,95337.37
2018-12-04T13:23:47.803Z,95330.20
2018-12-04T13:26:15.937Z,95337.31
2018-12-04T13:28:43.993Z,95340.65
2018-12-04T13:31:12.440Z,95343.81
2018-12-04T13:33:40.564Z,95346.00
2018-12-04T13:36:08.811Z,95344.69
2018-12-04T13:38:36.896Z,95340.73
2018-12-04T13:41:05.053Z,95349.81
2018-12-04T13:43:33.246Z,95355.74
2018-12-04T13:46:01.309Z,95359.69
2018-12-04T13:48:29.470Z,95358.39
2018-12-04T13:50:57.594Z,95361.72
2018-12-04T13:53:25.670Z,95372.84
2018-12-04T13:55:53.822Z,95370.02
2018-12-04T13:58:21.988Z,95375.31
2018-12-04T14:00:50.139Z,95378.65
2018-12-04T14:03:18.204Z,95380.00
2018-12-04T14:05:46.363Z,95385.58
2018-12-04T14:08:14.410Z,95386.30
2018-12-04T14:10:42.488Z,95395.03
2018-12-04T14:13:10.623Z,95392.40
2018-12-04T14:15:38.816Z,95409.21
2018-12-04T14:18:06.923Z,95409.28
2018-12-04T14:20:35.054Z,95417.37
2018-12-04T14:23:03.110Z,95424.06
2018-12-04T14:25:31.231Z,95427.92
2018-12-04T14:27:59.284Z,95426.31
2018-12-04T14:30:27.507Z,95425.10
2018-12-04T14:32:55.587Z,95424.24
2018-12-04T14:35:23.722Z,95428.93
2018-12-04T14:37:51.836Z,95434.27
2018-12-04T14:40:19.938Z,95441.13
2018-12-04T14:42:48.061Z,95441.97
2018-12-04T14:45:16.126Z,95455.25
2018-12-04T14:47:44.319Z,95463.31
2018-12-04T14:50:12.399Z,95469.73
2018-12-04T14:52:40.595Z,95467.03
2018-12-04T14:55:08.830Z,95476.52
2018-12-04T14:57:37.040Z,95483.30
2018-12-04T15:00:06.618Z,95484.09
2018-12-04T15:02:34.771Z,95493.66
2018-12-04T15:05:03.022Z,95494.39
2018-12-04T15:07:31.126Z,95487.44
2018-12-04T15:09:59.201Z,95495.73
2018-12-04T15:12:27.409Z,95499.24
2018-12-04T15:14:55.546Z,95499.17
2018-12-04T15:17:23.630Z,95503.37
2018-12-04T15:19:51.745Z,95511.59
2018-12-04T15:22:19.795Z,95504.33
2018-12-04T15:24:47.940Z,95514.05
2018-12-04T15:27:16.135Z,95513.31
2018-12-04T15:29:44.301Z,95526.82
2018-12-04T15:32:12.358Z,95531.05
2018-12-04T15:34:40.425Z,95536.77
2018-12-04T15:37:08.589Z,95534.18
2018-12-04T15:39:37.417Z,95541.00
2018-12-04T15:42:05.799Z,95542.72
2018-12-04T15:44:34.016Z,95548.44
2018-12-04T15:47:02.169Z,95551.50
2018-12-04T15:49:30.351Z,95559.91
2018-12-04T15:51:58.533Z,95563.09
2018-12-04T15:54:26.844Z,95565.89
2018-12-04T15:56:54.945Z,95564.99
2018-12-04T15:59:23.081Z,95566.23
2018-12-04T16:01:51.186Z,95570.55
2018-12-04T16:04:19.371Z,95570.14
2018-12-04T16:06:47.422Z,95569.83
2018-12-04T16:09:15.485Z,95574.00
2018-12-04T16:11:43.530Z,95586.05
2018-12-04T16:14:11.679Z,95588.87
2018-12-04T16:16:39.935Z,95586.67
2018-12-04T16:19:08.059Z,95588.45
2018-12-04T16:21:36.148Z,95595.61
2018-12-04T16:24:04.310Z,95593.46
2018-12-04T16:26:32.361Z,95601.88
2018-12-04T16:29:00.542Z,95602.09
2018-12-04T16:31:28.599Z,95608.91
2018-12-04T16:33:56.653Z,95614.44
2018-12-04T16:36:25.114Z,95611.35
2018-12-04T16:38:53.247Z,95612.20
2018-12-04T16:41:21.363Z,95613.98
2018-12-04T16:43:49.885Z,95608.86
2018-12-04T16:46:18.078Z,95620.39
2018-12-04T16:48:46.141Z,95609.58
2018-12-04T16:51:14.284Z,95610.63
2018-12-04T16:53:42.421Z,95615.64
2018-12-04T16:56:10.477Z,95619.13
2018-12-04T16:58:38.577Z,95621.81
2018-12-04T17:01:06.721Z,95624.29
2018-12-04T17:03:35.058Z,95621.59
2018-12-04T17:06:04.869Z,95627.51
2018-12-04T17:08:33.271Z,95628.52
2018-12-04T17:11:01.793Z,95631.33
2018-12-04T17:13:29.865Z,95628.86
2018-12-04T17:15:58.104Z,95626.33
2018-12-04T17:18:26.246Z,95628.93
2018-12-04T17:20:54.400Z,95641.67
2018-12-04T17:23:22.505Z,95635.41
2018-12-04T17:25:50.574Z,95634.28
2018-12-04T17:28:18.629Z,95638.28
2018-12-04T17:30:46.745Z,95640.14
2018-12-04T17:33:15.888Z,95634.69
2018-12-04T17:35:43.936Z,95642.77
2018-12-04T17:38:12.039Z,95637.05
2018-12-04T17:40:40.179Z,95637.27
2018-12-04T17:43:08.298Z,95634.26
2018-12-04T17:45:36.439Z,95636.64
2018-12-04T17:48:04.549Z,95638.72
2018-12-04T17:50:32.613Z,95636.63
2018-12-04T17:53:00.799Z,95637.09
2018-12-04T17:55:28.907Z,95638.22
2018-12-04T17:57:56.945Z,95640.39
2018-12-04T18:00:25.054Z,95644.62
2018-12-04T18:02:53.115Z,95638.41
2018-12-04T18:05:21.183Z,95645.31
2018-12-04T18:07:49.230Z,95648.05
2018-12-04T18:10:17.289Z,95644.95
2018-12-04T18:12:45.332Z,95650.09
2018-12-04T18:15:13.922Z,95648.09
2018-12-04T18:17:43.171Z,95656.66
2018-12-04T18:20:11.283Z,95654.13
2018-12-04T18:22:39.351Z,95659.85
2018-12-04T18:25:07.496Z,95659.82
2018-12-04T18:30:17.073Z,95666.81
2018-12-04T18:32:45.128Z,95667.81
2018-12-04T18:35:13.365Z,95665.92
2018-12-04T18:37:41.485Z,95669.04
2018-12-04T18:40:09.887Z,95675.23
2018-12-04T18:42:37.953Z,95674.48
2018-12-04T18:45:07.686Z,95679.23
2018-12-04T18:47:35.822Z,95685.05
2018-12-04T18:50:05.200Z,95685.23
2018-12-04T18:52:33.278Z,95685.42
2018-12-04T18:55:01.387Z,95682.64
2018-12-04T18:57:29.467Z,95694.44
2018-12-04T18:59:57.540Z,95687.50
2018-12-04T19:02:25.627Z,95689.11
2018-12-04T19:04:53.713Z,95686.73
2018-12-04T19:07:21.848Z,95690.05
2018-12-04T19:09:49.906Z,95700.83
2018-12-04T19:12:18.049Z,95696.36
2018-12-04T19:14:46.103Z,95702.73
2018-12-04T19:17:14.213Z,95707.97
2018-12-04T19:19:42.331Z,95707.88
2018-12-04T19:22:10.403Z,95713.81
2018-12-04T19:24:38.583Z,95715.29
2018-12-04T19:27:08.050Z,95713.50
2018-12-04T19:29:36.296Z,95721.69
2018-12-04T19:32:04.408Z,95732.59
2018-12-04T19:34:32.455Z,95733.17
2018-12-04T19:37:00.563Z,95742.17
2018-12-04T19:39:28.629Z,95742.16
2018-12-04T19:41:56.683Z,95747.72
2018-12-04T19:44:24.807Z,95750.88
2018-12-04T19:46:52.921Z,95757.39
2018-12-04T19:49:20.966Z,95755.60
2018-12-04T19:51:49.020Z,95761.75
2018-12-04T19:54:17.127Z,95766.58
2018-12-04T19:56:45.279Z,95767.39
2018-12-04T19:59:13.369Z,95762.25
2018-12-04T20:01:41.478Z,95768.07
2018-12-04T20:04:09.890Z,95764.63
2018-12-04T20:06:37.933Z,95765.72
2018-12-04T20:09:07.521Z,95766.88
2018-12-04T20:11:35.587Z,95775.61
2018-12-04T20:14:03.821Z,95779.27
2018-12-04T20:16:32.204Z,95785.61
2018-12-04T20:19:00.302Z,95788.86
2018-12-04T20:21:28.473Z,95794.98
2018-12-04T20:23:56.519Z,95792.83
2018-12-04T20:26:24.615Z,95785.89
2018-12-04T20:28:52.651Z,95789.11
2018-12-04T20:31:21.022Z,95791.73
2018-12-04T20:33:49.061Z,95794.59
2018-12-04T20:36:17.181Z,95795.58
2018-12-04T20:38:45.424Z,95800.83
2018-12-04T20:41:13.479Z,95804.29
2018-12-04T20:43:41.603Z,95806.08
2018-12-04T20:46:09.714Z,95794.40
2018-12-04T20:48:37.763Z,95790.73
2018-12-04T20:51:05.896Z,95793.90
2018-12-04T20:53:33.971Z,95802.92
2018-12-04T20:56:03.106Z,95805.72
2018-12-04T20:58:31.234Z,95806.13
2018-12-04T21:00:59.466Z,95809.63
2018-12-04T21:03:27.523Z,95813.27
2018-12-04T21:05:55.619Z,95813.95
2018-12-04T21:08:24.283Z,95813.98
2018-12-04T21:10:52.409Z,95812.41
2018-12-04T21:13:20.469Z,95815.57
2018-12-04T21:15:48.511Z,95813.50
2018-12-04T21:18:16.642Z,95821.97
2018-12-04T21:20:44.808Z,95811.84
2018-12-04T21:23:12.859Z,95814.88
2018-12-04T21:25:40.982Z,95817.00
2018-12-04T21:28:14.836Z,95818.01
2018-12-04T21:30:48.211Z,95822.90
2018-12-04T21:33:21.779Z,95818.13
2018-12-04T21:35:55.510Z,95823.22
2018-12-04T21:38:29.265Z,95821.19
2018-12-04T21:41:08.993Z,95818.88
2018-12-04T21:43:42.360Z,95818.95
2018-12-04T21:46:15.945Z,95822.44
2018-12-04T21:48:43.996Z,95824.34
2018-12-04T21:51:12.040Z,95817.55
2018-12-04T21:53:40.152Z,95819.92
2018-12-04T21:56:08.270Z,95818.61
2018-12-04T21:58:36.314Z,95818.42
2018-12-04T22:01:04.565Z,95819.75
2018-12-04T22:03:32.637Z,95818.50
2018-12-04T22:06:01.809Z,95827.55
2018-12-04T22:08:30.069Z,95828.35
2018-12-04T22:10:58.187Z,95829.47
2018-12-04T22:13:27.239Z,95832.16
2018-12-04T22:15:55.282Z,95828.82
2018-12-04T22:18:23.320Z,95834.48
2018-12-04T22:20:51.483Z,95840.37
2018-12-04T22:23:20.297Z,95842.77
2018-12-04T22:25:48.462Z,95834.58
2018-12-04T22:28:16.489Z,95838.27
2018-12-04T22:30:45.151Z,95839.05
2018-12-04T22:33:13.205Z,95840.41
2018-12-04T22:35:41.252Z,95841.44
2018-12-04T22:38:09.295Z,95845.41
2018-12-04T22:40:37.398Z,95838.11
2018-12-04T22:43:05.729Z,95837.47
2018-12-04T22:45:33.754Z,95836.84
2018-12-04T22:48:01.807Z,95841.45
2018-12-04T22:50:29.993Z,95838.65
2018-12-04T22:52:58.031Z,95842.58
2018-12-04T22:55:26.071Z,95847.14
2018-12-04T22:57:54.162Z,95846.72
2018-12-04T23:00:27.806Z,95845.91
2018-12-04T23:02:55.914Z,95854.86
2018-12-04T23:05:24.018Z,95857.05
2018-12-04T23:07:52.055Z,95856.31
2018-12-04T23:10:20.098Z,95846.42
2018-12-04T23:12:48.261Z,95847.80
2018-12-04T23:15:16.300Z,95853.09
2018-12-04T23:17:44.331Z,95853.61
2018-12-04T23:20:12.488Z,95857.64
2018-12-04T23:22:40.596Z,95853.88
2018-12-04T23:25:08.631Z,95856.61
2018-12-04T23:27:36.824Z,95853.32
2018-12-04T23:30:05.770Z,95850.50
2018-12-04T23:32:33.892Z,95854.70
2018-12-04T23:35:02.006Z,95848.98
2018-12-04T23:37:30.062Z,95843.72
2018-12-04T23:39:58.104Z,95847.14
2018-12-04T23:42:26.131Z,95844.45
2018-12-04T23:44:54.154Z,95847.67
2018-12-04T23:47:22.202Z,95848.35
2018-12-04T23:49:50.245Z,95846.66
2018-12-04T23:52:18.296Z,95847.94
2018-12-04T23:54:46.348Z,95847.39
2018-12-04T23:57:14.397Z,95844.01
2018-12-04T23:59:42.426Z,95848.38
